sensor_id;sensor_type;location;lat;lon;timestamp;pressure;altitude;pressure_sealevel;temperature;humidity
70343;BME280;57767;42.068;24.752;2024-02-21T00:00:56;99609.66;;;6.59;85.53
70343;BME280;57767;42.068;24.752;2024-02-21T00:01:58;99610.00;;;6.56;85.78
70343;BME280;57767;42.068;24.752;2024-02-21T00:03:00;99608.81;;;6.59;85.90
70343;BME280;57767;42.068;24.752;2024-02-21T00:04:03;99612.59;;;6.64;86.16
70343;BME280;57767;42.068;24.752;2024-02-21T00:05:05;99605.88;;;6.62;85.93
70343;BME280;57767;42.068;24.752;2024-02-21T00:06:07;99613.28;;;6.66;86.22
70343;BME280;57767;42.068;24.752;2024-02-21T00:07:09;99608.84;;;6.67;86.21
70343;BME280;57767;42.068;24.752;2024-02-21T00:08:10;99606.38;;;6.73;85.94
70343;BME280;57767;42.068;24.752;2024-02-21T00:09:12;99596.69;;;6.74;85.94
70343;BME280;57767;42.068;24.752;2024-02-21T00:10:14;99601.94;;;6.74;85.78
70343;BME280;57767;42.068;24.752;2024-02-21T00:11:15;99589.31;;;6.77;86.06
70343;BME280;57767;42.068;24.752;2024-02-21T00:12:17;99598.97;;;6.85;85.51
70343;BME280;57767;42.068;24.752;2024-02-21T00:13:19;99600.47;;;6.88;85.63
70343;BME280;57767;42.068;24.752;2024-02-21T00:14:21;99591.63;;;6.80;85.63
70343;BME280;57767;42.068;24.752;2024-02-21T00:15:23;99603.41;;;6.84;85.55
70343;BME280;57767;42.068;24.752;2024-02-21T00:16:24;99597.34;;;6.84;85.58
70343;BME280;57767;42.068;24.752;2024-02-21T00:17:26;99601.44;;;6.87;85.91
70343;BME280;57767;42.068;24.752;2024-02-21T00:18:27;99604.56;;;6.90;85.87
70343;BME280;57767;42.068;24.752;2024-02-21T00:19:31;99588.00;;;6.81;85.59
70343;BME280;57767;42.068;24.752;2024-02-21T00:20:33;99599.16;;;6.92;85.13
70343;BME280;57767;42.068;24.752;2024-02-21T00:21:34;99598.31;;;6.91;85.22
70343;BME280;57767;42.068;24.752;2024-02-21T00:22:36;99598.97;;;6.93;84.52
70343;BME280;57767;42.068;24.752;2024-02-21T00:23:38;99597.19;;;6.94;84.56
70343;BME280;57767;42.068;24.752;2024-02-21T00:24:40;99597.19;;;6.94;84.21
70343;BME280;57767;42.068;24.752;2024-02-21T00:25:42;99588.97;;;6.89;83.86
70343;BME280;57767;42.068;24.752;2024-02-21T00:26:43;99582.06;;;6.88;83.86
70343;BME280;57767;42.068;24.752;2024-02-21T00:27:45;99582.06;;;6.88;84.13
70343;BME280;57767;42.068;24.752;2024-02-21T00:28:47;99586.19;;;6.82;83.55
70343;BME280;57767;42.068;24.752;2024-02-21T00:29:48;99585.72;;;6.78;83.33
70343;BME280;57767;42.068;24.752;2024-02-21T00:30:50;99581.13;;;6.80;83.23
70343;BME280;57767;42.068;24.752;2024-02-21T00:31:52;99580.63;;;6.77;82.98
70343;BME280;57767;42.068;24.752;2024-02-21T00:32:53;99571.09;;;6.76;82.37
70343;BME280;57767;42.068;24.752;2024-02-21T00:33:55;99580.47;;;6.78;82.38
70343;BME280;57767;42.068;24.752;2024-02-21T00:34:57;99577.84;;;6.78;81.83
70343;BME280;57767;42.068;24.752;2024-02-21T00:35:58;99580.78;;;6.75;82.08
70343;BME280;57767;42.068;24.752;2024-02-21T00:37:00;99582.41;;;6.76;81.80
70343;BME280;57767;42.068;24.752;2024-02-21T00:38:02;99581.28;;;6.79;81.29
70343;BME280;57767;42.068;24.752;2024-02-21T00:39:05;99582.75;;;6.81;80.96
70343;BME280;57767;42.068;24.752;2024-02-21T00:40:07;99575.03;;;6.80;80.91
70343;BME280;57767;42.068;24.752;2024-02-21T00:41:08;99582.75;;;6.81;80.94
70343;BME280;57767;42.068;24.752;2024-02-21T00:42:10;99580.13;;;6.81;80.97
70343;BME280;57767;42.068;24.752;2024-02-21T00:43:12;99584.03;;;6.86;81.04
70343;BME280;57767;42.068;24.752;2024-02-21T00:44:13;99577.97;;;6.85;81.04
70343;BME280;57767;42.068;24.752;2024-02-21T00:45:15;99580.28;;;6.88;80.64
70343;BME280;57767;42.068;24.752;2024-02-21T00:46:17;99572.72;;;6.85;80.78
70343;BME280;57767;42.068;24.752;2024-02-21T00:47:18;99576.81;;;6.88;80.71
70343;BME280;57767;42.068;24.752;2024-02-21T00:48:20;99579.63;;;6.86;80.25
70343;BME280;57767;42.068;24.752;2024-02-21T00:49:22;99579.47;;;6.88;80.25
70343;BME280;57767;42.068;24.752;2024-02-21T00:50:24;99571.25;;;6.91;79.88
70343;BME280;57767;42.068;24.752;2024-02-21T00:51:25;99565.84;;;6.92;79.80
70343;BME280;57767;42.068;24.752;2024-02-21T00:52:27;99573.72;;;6.92;79.75
70343;BME280;57767;42.068;24.752;2024-02-21T00:53:28;99574.38;;;6.86;79.38
70343;BME280;57767;42.068;24.752;2024-02-21T00:54:30;99566.00;;;6.91;79.07
70343;BME280;57767;42.068;24.752;2024-02-21T00:55:48;99567.31;;;6.95;78.59
70343;BME280;57767;42.068;24.752;2024-02-21T00:56:49;99568.97;;;6.96;78.88
70343;BME280;57767;42.068;24.752;2024-02-21T00:57:51;99567.31;;;6.95;78.20
70343;BME280;57767;42.068;24.752;2024-02-21T00:58:53;99570.09;;;6.93;78.69
70343;BME280;57767;42.068;24.752;2024-02-21T00:59:54;99575.19;;;6.95;78.17
70343;BME280;57767;42.068;24.752;2024-02-21T01:00:56;99561.56;;;6.91;78.18
70343;BME280;57767;42.068;24.752;2024-02-21T01:01:58;99565.84;;;6.92;77.84
70343;BME280;57767;42.068;24.752;2024-02-21T01:02:59;99565.19;;;6.90;77.88
70343;BME280;57767;42.068;24.752;2024-02-21T01:04:01;99555.19;;;6.94;77.89
70343;BME280;57767;42.068;24.752;2024-02-21T01:05:03;99556.47;;;6.98;77.13
70343;BME280;57767;42.068;24.752;2024-02-21T01:06:05;99555.63;;;6.97;76.87
70343;BME280;57767;42.068;24.752;2024-02-21T01:07:08;99547.97;;;6.96;77.03
70343;BME280;57767;42.068;24.752;2024-02-21T01:08:09;99553.53;;;6.93;76.35
70343;BME280;57767;42.068;24.752;2024-02-21T01:09:11;99552.88;;;6.91;76.31
70343;BME280;57767;42.068;24.752;2024-02-21T01:10:12;99558.94;;;6.91;76.36
70343;BME280;57767;42.068;24.752;2024-02-21T01:11:18;99554.34;;;6.93;75.89
70343;BME280;57767;42.068;24.752;2024-02-21T01:12:20;99550.09;;;6.92;75.92
70343;BME280;57767;42.068;24.752;2024-02-21T01:13:21;99558.47;;;6.96;76.08
70343;BME280;57767;42.068;24.752;2024-02-21T01:14:23;99548.94;;;6.95;75.62
70343;BME280;57767;42.068;24.752;2024-02-21T01:15:25;99552.38;;;6.95;75.45
70343;BME280;57767;42.068;24.752;2024-02-21T01:16:27;99561.72;;;6.98;76.19
70343;BME280;57767;42.068;24.752;2024-02-21T01:17:28;99561.72;;;6.98;75.64
70343;BME280;57767;42.068;24.752;2024-02-21T01:18:30;99566.34;;;6.96;75.73
70343;BME280;57767;42.068;24.752;2024-02-21T01:19:32;99561.72;;;6.98;76.01
70343;BME280;57767;42.068;24.752;2024-02-21T01:20:33;99551.56;;;6.95;76.09
70343;BME280;57767;42.068;24.752;2024-02-21T01:21:35;99560.25;;;6.95;77.11
70343;BME280;57767;42.068;24.752;2024-02-21T01:22:36;99550.25;;;6.91;77.77
70343;BME280;57767;42.068;24.752;2024-02-21T01:23:39;99557.50;;;6.80;78.45
70343;BME280;57767;42.068;24.752;2024-02-21T01:24:41;99560.28;;;6.79;79.18
70343;BME280;57767;42.068;24.752;2024-02-21T01:25:43;99561.91;;;6.72;79.68
70343;BME280;57767;42.068;24.752;2024-02-21T01:26:45;99557.16;;;6.59;80.77
70343;BME280;57767;42.068;24.752;2024-02-21T01:27:47;99553.25;;;6.47;81.20
70343;BME280;57767;42.068;24.752;2024-02-21T01:28:49;99554.56;;;6.43;81.73
70343;BME280;57767;42.068;24.752;2024-02-21T01:29:51;99560.63;;;6.35;82.73
70343;BME280;57767;42.068;24.752;2024-02-21T01:30:53;99552.59;;;6.29;83.14
70343;BME280;57767;42.068;24.752;2024-02-21T01:31:55;99551.13;;;6.26;83.66
70343;BME280;57767;42.068;24.752;2024-02-21T01:32:57;99551.59;;;6.22;84.21
70343;BME280;57767;42.068;24.752;2024-02-21T01:33:59;99554.22;;;6.22;84.33
70343;BME280;57767;42.068;24.752;2024-02-21T01:35:00;99549.31;;;6.19;85.13
70343;BME280;57767;42.068;24.752;2024-02-21T01:36:02;99542.44;;;6.18;84.88
70343;BME280;57767;42.068;24.752;2024-02-21T01:37:04;99532.59;;;6.03;85.09
70343;BME280;57767;42.068;24.752;2024-02-21T01:38:08;99540.13;;;6.06;85.71
70343;BME280;57767;42.068;24.752;2024-02-21T01:39:10;99555.34;;;6.11;85.46
70343;BME280;57767;42.068;24.752;2024-02-21T01:40:11;99542.72;;;5.98;85.52
70343;BME280;57767;42.068;24.752;2024-02-21T01:41:13;99541.59;;;6.01;86.17
70343;BME280;57767;42.068;24.752;2024-02-21T01:42:15;99547.66;;;6.01;85.84
70343;BME280;57767;42.068;24.752;2024-02-21T01:43:19;99548.63;;;5.92;86.05
70343;BME280;57767;42.068;24.752;2024-02-21T01:44:22;99529.06;;;5.87;86.41
70343;BME280;57767;42.068;24.752;2024-02-21T01:45:23;99539.44;;;5.96;86.47
70343;BME280;57767;42.068;24.752;2024-02-21T01:46:25;99547.13;;;5.98;85.62
70343;BME280;57767;42.068;24.752;2024-02-21T01:47:32;99543.38;;;5.92;85.49
70343;BME280;57767;42.068;24.752;2024-02-21T01:48:34;99545.63;;;5.87;85.68
70343;BME280;57767;42.068;24.752;2024-02-21T01:49:36;99532.84;;;5.84;86.29
70343;BME280;57767;42.068;24.752;2024-02-21T01:50:38;99539.28;;;5.90;86.09
70343;BME280;57767;42.068;24.752;2024-02-21T01:51:40;99537.75;;;5.87;86.47
70343;BME280;57767;42.068;24.752;2024-02-21T01:52:43;99531.84;;;5.85;86.07
70343;BME280;57767;42.068;24.752;2024-02-21T01:53:48;99529.47;;;5.92;86.32
70343;BME280;57767;42.068;24.752;2024-02-21T01:54:52;99537.00;;;6.03;85.58
70343;BME280;57767;42.068;24.752;2024-02-21T01:55:53;99537.97;;;6.10;84.68
70343;BME280;57767;42.068;24.752;2024-02-21T01:56:56;99536.53;;;6.16;84.74
70343;BME280;57767;42.068;24.752;2024-02-21T01:57:58;99525.88;;;6.17;84.41
70343;BME280;57767;42.068;24.752;2024-02-21T01:59:00;99526.03;;;6.24;83.45
70343;BME280;57767;42.068;24.752;2024-02-21T02:00:02;99533.91;;;6.32;82.87
70343;BME280;57767;42.068;24.752;2024-02-21T02:01:04;99532.44;;;6.37;82.15
70343;BME280;57767;42.068;24.752;2024-02-21T02:02:06;99528.00;;;6.46;82.69
70343;BME280;57767;42.068;24.752;2024-02-21T02:03:10;99541.28;;;6.53;82.62
70343;BME280;57767;42.068;24.752;2024-02-21T02:04:18;99534.88;;;6.55;82.30
70343;BME280;57767;42.068;24.752;2024-02-21T02:05:21;99537.81;;;6.60;82.24
70343;BME280;57767;42.068;24.752;2024-02-21T02:06:23;99532.56;;;6.60;82.40
70343;BME280;57767;42.068;24.752;2024-02-21T02:07:24;99536.66;;;6.63;82.75
70343;BME280;57767;42.068;24.752;2024-02-21T02:08:26;99534.72;;;6.65;82.20
70343;BME280;57767;42.068;24.752;2024-02-21T02:09:30;99525.38;;;6.54;82.33
70343;BME280;57767;42.068;24.752;2024-02-21T02:10:31;99536.53;;;6.56;82.52
70343;BME280;57767;42.068;24.752;2024-02-21T02:11:33;99526.69;;;6.50;82.75
70343;BME280;57767;42.068;24.752;2024-02-21T02:12:35;99529.00;;;6.45;83.26
70343;BME280;57767;42.068;24.752;2024-02-21T02:13:37;99531.63;;;6.45;83.42
70343;BME280;57767;42.068;24.752;2024-02-21T02:14:38;99528.66;;;6.40;83.66
70343;BME280;57767;42.068;24.752;2024-02-21T02:15:50;99526.19;;;6.38;84.29
70343;BME280;57767;42.068;24.752;2024-02-21T02:16:51;99529.66;;;6.39;84.29
70343;BME280;57767;42.068;24.752;2024-02-21T02:17:53;99525.06;;;6.41;83.85
70343;BME280;57767;42.068;24.752;2024-02-21T02:18:54;99530.31;;;6.33;84.20
70343;BME280;57767;42.068;24.752;2024-02-21T02:19:56;99514.25;;;6.20;84.42
70343;BME280;57767;42.068;24.752;2024-02-21T02:20:58;99525.06;;;6.25;84.57
70343;BME280;57767;42.068;24.752;2024-02-21T02:22:16;99528.81;;;6.22;84.57
70343;BME280;57767;42.068;24.752;2024-02-21T02:23:30;99528.50;;;6.25;84.57
70343;BME280;57767;42.068;24.752;2024-02-21T02:24:32;99528.19;;;6.28;85.47
70343;BME280;57767;42.068;24.752;2024-02-21T02:25:35;99517.34;;;6.23;85.44
70343;BME280;57767;42.068;24.752;2024-02-21T02:26:37;99522.09;;;6.28;85.66
70343;BME280;57767;42.068;24.752;2024-02-21T02:27:42;99523.75;;;6.29;85.88
70343;BME280;57767;42.068;24.752;2024-02-21T02:28:45;99523.59;;;6.30;85.52
70343;BME280;57767;42.068;24.752;2024-02-21T02:29:47;99505.88;;;6.24;85.18
70343;BME280;57767;42.068;24.752;2024-02-21T02:30:49;99505.06;;;6.24;85.70
70343;BME280;57767;42.068;24.752;2024-02-21T02:31:51;99531.63;;;6.45;85.79
70343;BME280;57767;42.068;24.752;2024-02-21T02:32:52;99522.75;;;6.46;84.71
70343;BME280;57767;42.068;24.752;2024-02-21T02:33:54;99524.06;;;6.58;84.07
70343;BME280;57767;42.068;24.752;2024-02-21T02:34:56;99523.06;;;6.67;84.08
70343;BME280;57767;42.068;24.752;2024-02-21T02:35:58;99523.06;;;6.67;83.37
70343;BME280;57767;42.068;24.752;2024-02-21T02:37:00;99525.66;;;6.75;82.86
70343;BME280;57767;42.068;24.752;2024-02-21T02:38:05;99512.41;;;6.69;82.66
70343;BME280;57767;42.068;24.752;2024-02-21T02:39:06;99515.16;;;6.83;82.46
70343;BME280;57767;42.068;24.752;2024-02-21T02:40:08;99522.53;;;6.88;82.19
70343;BME280;57767;42.068;24.752;2024-02-21T02:41:10;99519.91;;;6.88;82.25
70343;BME280;57767;42.068;24.752;2024-02-21T02:42:11;99534.63;;;6.97;81.75
70343;BME280;57767;42.068;24.752;2024-02-21T02:43:13;99524.13;;;6.97;81.53
70343;BME280;57767;42.068;24.752;2024-02-21T02:44:15;99527.25;;;7.01;81.07
70343;BME280;57767;42.068;24.752;2024-02-21T02:45:18;99526.44;;;7.08;80.92
70343;BME280;57767;42.068;24.752;2024-02-21T02:46:19;99524.25;;;7.12;80.23
70343;BME280;57767;42.068;24.752;2024-02-21T02:47:21;99534.44;;;7.15;80.47
70343;BME280;57767;42.068;24.752;2024-02-21T02:48:23;99536.72;;;7.18;80.81
70343;BME280;57767;42.068;24.752;2024-02-21T02:49:25;99529.00;;;7.16;80.97
70343;BME280;57767;42.068;24.752;2024-02-21T02:50:27;99534.75;;;7.20;80.75
70343;BME280;57767;42.068;24.752;2024-02-21T02:51:29;99534.38;;;7.23;80.88
70343;BME280;57767;42.068;24.752;2024-02-21T02:52:30;99527.50;;;7.22;80.44
70343;BME280;57767;42.068;24.752;2024-02-21T02:53:32;99526.84;;;7.28;80.37
70343;BME280;57767;42.068;24.752;2024-02-21T02:54:34;99527.31;;;7.32;80.05
70343;BME280;57767;42.068;24.752;2024-02-21T02:55:35;99509.59;;;7.26;80.15
70343;BME280;57767;42.068;24.752;2024-02-21T02:56:37;99533.41;;;7.32;80.32
70343;BME280;57767;42.068;24.752;2024-02-21T02:57:39;99529.59;;;7.35;79.99
70343;BME280;57767;42.068;24.752;2024-02-21T02:58:43;99523.72;;;7.33;80.41
70343;BME280;57767;42.068;24.752;2024-02-21T02:59:48;99527.44;;;7.38;80.67
70343;BME280;57767;42.068;24.752;2024-02-21T03:00:50;99524.97;;;7.37;80.76
70343;BME280;57767;42.068;24.752;2024-02-21T03:01:52;99520.09;;;7.34;80.79
70343;BME280;57767;42.068;24.752;2024-02-21T03:02:53;99527.78;;;7.35;80.89
70343;BME280;57767;42.068;24.752;2024-02-21T03:03:55;99527.78;;;7.35;81.28
70343;BME280;57767;42.068;24.752;2024-02-21T03:04:57;99532.69;;;7.38;80.75
70343;BME280;57767;42.068;24.752;2024-02-21T03:05:58;99528.44;;;7.37;80.87
70343;BME280;57767;42.068;24.752;2024-02-21T03:07:00;99518.44;;;7.33;80.84
70343;BME280;57767;42.068;24.752;2024-02-21T03:08:02;99522.34;;;7.37;80.61
70343;BME280;57767;42.068;24.752;2024-02-21T03:09:04;99526.16;;;7.34;80.98
70343;BME280;57767;42.068;24.752;2024-02-21T03:10:10;99529.59;;;7.35;80.98
70343;BME280;57767;42.068;24.752;2024-02-21T03:11:12;99523.53;;;7.34;80.19
70343;BME280;57767;42.068;24.752;2024-02-21T03:12:14;99521.69;;;7.35;80.78
70343;BME280;57767;42.068;24.752;2024-02-21T03:13:20;99527.44;;;7.38;81.02
70343;BME280;57767;42.068;24.752;2024-02-21T03:14:22;99524.34;;;7.35;80.87
70343;BME280;57767;42.068;24.752;2024-02-21T03:15:23;99519.06;;;7.35;81.13
70343;BME280;57767;42.068;24.752;2024-02-21T03:16:25;99524.84;;;7.30;80.94
70343;BME280;57767;42.068;24.752;2024-02-21T03:17:27;99518.47;;;7.25;81.70
70343;BME280;57767;42.068;24.752;2024-02-21T03:18:29;99528.47;;;7.29;81.55
70343;BME280;57767;42.068;24.752;2024-02-21T03:19:31;99528.47;;;7.29;81.64
70343;BME280;57767;42.068;24.752;2024-02-21T03:20:33;99524.22;;;7.28;81.66
70343;BME280;57767;42.068;24.752;2024-02-21T03:21:35;99527.81;;;7.27;81.68
70343;BME280;57767;42.068;24.752;2024-02-21T03:22:36;99521.75;;;7.27;81.91
70343;BME280;57767;42.068;24.752;2024-02-21T03:23:38;99525.50;;;7.32;81.81
70343;BME280;57767;42.068;24.752;2024-02-21T03:24:40;99523.88;;;7.31;82.09
70343;BME280;57767;42.068;24.752;2024-02-21T03:25:41;99522.88;;;7.32;81.81
70343;BME280;57767;42.068;24.752;2024-02-21T03:26:43;99521.09;;;7.33;81.95
70343;BME280;57767;42.068;24.752;2024-02-21T03:27:45;99522.88;;;7.32;82.00
70343;BME280;57767;42.068;24.752;2024-02-21T03:28:46;99521.69;;;7.35;82.05
70343;BME280;57767;42.068;24.752;2024-02-21T03:29:48;99521.25;;;7.31;82.44
70343;BME280;57767;42.068;24.752;2024-02-21T03:30:50;99524.84;;;7.30;82.44
70343;BME280;57767;42.068;24.752;2024-02-21T03:31:51;99522.56;;;7.27;82.22
70343;BME280;57767;42.068;24.752;2024-02-21T03:32:53;99524.53;;;7.25;82.96
70343;BME280;57767;42.068;24.752;2024-02-21T03:33:54;99506.50;;;7.22;82.50
70343;BME280;57767;42.068;24.752;2024-02-21T03:34:56;99526.50;;;7.23;82.41
70343;BME280;57767;42.068;24.752;2024-02-21T03:35:58;99511.63;;;7.15;81.67
70343;BME280;57767;42.068;24.752;2024-02-21T03:37:00;99509.50;;;7.11;82.43
70343;BME280;57767;42.068;24.752;2024-02-21T03:38:01;99520.81;;;7.11;82.26
70343;BME280;57767;42.068;24.752;2024-02-21T03:39:03;99519.00;;;7.12;82.37
70343;BME280;57767;42.068;24.752;2024-02-21T03:40:11;99514.13;;;7.01;82.88
70343;BME280;57767;42.068;24.752;2024-02-21T03:41:13;99516.41;;;7.04;82.96
70343;BME280;57767;42.068;24.752;2024-02-21T03:42:14;99511.16;;;7.04;83.12
70343;BME280;57767;42.068;24.752;2024-02-21T03:43:16;99508.88;;;7.01;82.96
70343;BME280;57767;42.068;24.752;2024-02-21T03:44:18;99512.03;;;6.96;83.33
70343;BME280;57767;42.068;24.752;2024-02-21T03:45:19;99508.75;;;6.94;83.51
70343;BME280;57767;42.068;24.752;2024-02-21T03:46:21;99511.03;;;6.89;83.46
70343;BME280;57767;42.068;24.752;2024-02-21T03:47:22;99510.22;;;6.89;83.76
70343;BME280;57767;42.068;24.752;2024-02-21T03:48:24;99509.41;;;6.88;83.89
70343;BME280;57767;42.068;24.752;2024-02-21T03:49:26;99508.56;;;6.88;83.95
70343;BME280;57767;42.068;24.752;2024-02-21T03:50:28;99512.03;;;6.88;83.38
70343;BME280;57767;42.068;24.752;2024-02-21T03:51:30;99513.16;;;6.86;83.86
70343;BME280;57767;42.068;24.752;2024-02-21T03:52:31;99501.72;;;6.78;83.53
70343;BME280;57767;42.068;24.752;2024-02-21T03:53:33;99512.53;;;6.83;83.90
70343;BME280;57767;42.068;24.752;2024-02-21T03:54:34;99515.31;;;6.90;83.58
70343;BME280;57767;42.068;24.752;2024-02-21T03:55:36;99510.22;;;6.89;83.71
70343;BME280;57767;42.068;24.752;2024-02-21T03:56:38;99517.59;;;6.93;83.18
70343;BME280;57767;42.068;24.752;2024-02-21T03:57:41;99512.34;;;6.93;83.76
70343;BME280;57767;42.068;24.752;2024-02-21T03:58:42;99519.06;;;6.96;83.20
70343;BME280;57767;42.068;24.752;2024-02-21T03:59:44;99519.69;;;6.98;83.57
70343;BME280;57767;42.068;24.752;2024-02-21T04:00:46;99522.97;;;7.00;83.19
70343;BME280;57767;42.068;24.752;2024-02-21T04:01:51;99521.84;;;7.02;83.35
70343;BME280;57767;42.068;24.752;2024-02-21T04:02:54;99520.19;;;7.01;83.13
70343;BME280;57767;42.068;24.752;2024-02-21T04:03:57;99516.41;;;7.04;83.27
70343;BME280;57767;42.068;24.752;2024-02-21T04:04:58;99524.50;;;6.94;83.09
70343;BME280;57767;42.068;24.752;2024-02-21T04:06:01;99521.69;;;6.88;83.51
70343;BME280;57767;42.068;24.752;2024-02-21T04:07:03;99524.31;;;6.88;83.92
70343;BME280;57767;42.068;24.752;2024-02-21T04:08:07;99518.28;;;6.79;83.58
70343;BME280;57767;42.068;24.752;2024-02-21T04:09:09;99526.31;;;6.77;83.67
70343;BME280;57767;42.068;24.752;2024-02-21T04:10:11;99515.81;;;6.77;83.65
70343;BME280;57767;42.068;24.752;2024-02-21T04:11:13;99522.38;;;6.81;82.82
70343;BME280;57767;42.068;24.752;2024-02-21T04:12:15;99518.78;;;6.74;82.49
70343;BME280;57767;42.068;24.752;2024-02-21T04:13:16;99519.09;;;6.71;82.40
70343;BME280;57767;42.068;24.752;2024-02-21T04:14:18;99516.66;;;6.70;82.41
70343;BME280;57767;42.068;24.752;2024-02-21T04:15:20;99524.34;;;6.71;82.41
70343;BME280;57767;42.068;24.752;2024-02-21T04:16:21;99516.00;;;6.60;82.25
70343;BME280;57767;42.068;24.752;2024-02-21T04:17:23;99517.16;;;6.65;82.28
70343;BME280;57767;42.068;24.752;2024-02-21T04:18:24;99514.88;;;6.62;82.65
70343;BME280;57767;42.068;24.752;2024-02-21T04:19:26;99518.63;;;6.68;82.77
70343;BME280;57767;42.068;24.752;2024-02-21T04:20:28;99517.00;;;6.67;82.89
70343;BME280;57767;42.068;24.752;2024-02-21T04:21:29;99527.78;;;6.72;83.34
70343;BME280;57767;42.068;24.752;2024-02-21T04:22:31;99525.16;;;6.72;83.38
70343;BME280;57767;42.068;24.752;2024-02-21T04:23:36;99522.25;;;6.67;83.18
70343;BME280;57767;42.068;24.752;2024-02-21T04:24:38;99525.69;;;6.67;83.66
70343;BME280;57767;42.068;24.752;2024-02-21T04:25:39;99526.69;;;6.66;82.45
70343;BME280;57767;42.068;24.752;2024-02-21T04:26:41;99533.06;;;6.64;83.16
70343;BME280;57767;42.068;24.752;2024-02-21T04:27:42;99522.72;;;6.62;83.20
70343;BME280;57767;42.068;24.752;2024-02-21T04:28:47;99524.38;;;6.63;83.33
70343;BME280;57767;42.068;24.752;2024-02-21T04:29:49;99539.47;;;6.69;82.73
70343;BME280;57767;42.068;24.752;2024-02-21T04:30:50;99530.78;;;6.69;82.25
70343;BME280;57767;42.068;24.752;2024-02-21T04:31:52;99534.22;;;6.69;81.89
70343;BME280;57767;42.068;24.752;2024-02-21T04:32:54;99536.03;;;6.69;81.28
70343;BME280;57767;42.068;24.752;2024-02-21T04:33:56;99530.75;;;6.61;80.64
70343;BME280;57767;42.068;24.752;2024-02-21T04:34:58;99541.25;;;6.61;80.17
70343;BME280;57767;42.068;24.752;2024-02-21T04:35:59;99543.72;;;6.62;80.45
70343;BME280;57767;42.068;24.752;2024-02-21T04:37:02;99550.78;;;6.62;79.49
70343;BME280;57767;42.068;24.752;2024-02-21T04:38:03;99546.84;;;6.66;78.37
70343;BME280;57767;42.068;24.752;2024-02-21T04:39:05;99544.38;;;6.64;78.67
70343;BME280;57767;42.068;24.752;2024-02-21T04:40:07;99544.88;;;6.52;78.58
70343;BME280;57767;42.068;24.752;2024-02-21T04:41:09;99548.66;;;6.41;78.61
70343;BME280;57767;42.068;24.752;2024-02-21T04:42:11;99546.69;;;6.35;78.78
70343;BME280;57767;42.068;24.752;2024-02-21T04:43:12;99547.34;;;6.29;78.71
70343;BME280;57767;42.068;24.752;2024-02-21T04:44:14;99552.25;;;6.24;79.29
70343;BME280;57767;42.068;24.752;2024-02-21T04:45:17;99546.69;;;6.19;79.58
70343;BME280;57767;42.068;24.752;2024-02-21T04:46:18;99553.72;;;6.10;79.80
70343;BME280;57767;42.068;24.752;2024-02-21T04:47:20;99551.91;;;6.02;80.54
70343;BME280;57767;42.068;24.752;2024-02-21T04:48:22;99551.91;;;6.02;80.60
70343;BME280;57767;42.068;24.752;2024-02-21T04:49:23;99551.56;;;5.97;81.19
70343;BME280;57767;42.068;24.752;2024-02-21T04:50:25;99553.88;;;6.00;81.47
70343;BME280;57767;42.068;24.752;2024-02-21T04:51:27;99549.28;;;5.94;81.58
70343;BME280;57767;42.068;24.752;2024-02-21T04:52:29;99553.88;;;5.92;82.07
70343;BME280;57767;42.068;24.752;2024-02-21T04:53:31;99545.34;;;5.98;82.52
70343;BME280;57767;42.068;24.752;2024-02-21T04:54:32;99555.00;;;5.98;82.32
70343;BME280;57767;42.068;24.752;2024-02-21T04:55:36;99547.31;;;5.96;82.30
70343;BME280;57767;42.068;24.752;2024-02-21T04:56:38;99558.47;;;6.06;82.36
70343;BME280;57767;42.068;24.752;2024-02-21T04:57:39;99551.09;;;6.10;82.22
70343;BME280;57767;42.068;24.752;2024-02-21T04:58:41;99556.69;;;6.15;82.99
70343;BME280;57767;42.068;24.752;2024-02-21T04:59:44;99557.81;;;6.21;82.70
70343;BME280;57767;42.068;24.752;2024-02-21T05:00:46;99562.09;;;6.22;83.02
70343;BME280;57767;42.068;24.752;2024-02-21T05:01:48;99560.28;;;6.22;82.62
70343;BME280;57767;42.068;24.752;2024-02-21T05:02:49;99561.44;;;6.28;83.36
70343;BME280;57767;42.068;24.752;2024-02-21T05:03:51;99530.94;;;6.10;83.04
70343;BME280;57767;42.068;24.752;2024-02-21T05:04:53;99571.47;;;6.32;83.32
70343;BME280;57767;42.068;24.752;2024-02-21T05:05:54;99567.66;;;6.27;83.44
70343;BME280;57767;42.068;24.752;2024-02-21T05:06:56;99561.59;;;6.18;83.94
70343;BME280;57767;42.068;24.752;2024-02-21T05:07:58;99564.22;;;6.18;84.37
70343;BME280;57767;42.068;24.752;2024-02-21T05:09:00;99573.56;;;6.21;84.60
70343;BME280;57767;42.068;24.752;2024-02-21T05:10:01;99570.59;;;6.24;84.34
70343;BME280;57767;42.068;24.752;2024-02-21T05:11:03;99571.44;;;6.24;83.99
70343;BME280;57767;42.068;24.752;2024-02-21T05:12:05;99578.16;;;6.27;84.09
70343;BME280;57767;42.068;24.752;2024-02-21T05:13:07;99578.47;;;6.24;84.10
70343;BME280;57767;42.068;24.752;2024-02-21T05:14:10;99549.13;;;6.04;83.83
70343;BME280;57767;42.068;24.752;2024-02-21T05:15:12;99575.69;;;6.17;84.60
70343;BME280;57767;42.068;24.752;2024-02-21T05:16:13;99580.09;;;6.08;83.85
70343;BME280;57767;42.068;24.752;2024-02-21T05:17:15;99586.16;;;6.01;84.31
70343;BME280;57767;42.068;24.752;2024-02-21T05:18:17;99578.13;;;5.94;84.30
70343;BME280;57767;42.068;24.752;2024-02-21T05:19:19;99573.63;;;5.87;84.14
70343;BME280;57767;42.068;24.752;2024-02-21T05:20:20;99580.66;;;5.86;85.24
70343;BME280;57767;42.068;24.752;2024-02-21T05:21:23;99583.94;;;5.80;85.07
70343;BME280;57767;42.068;24.752;2024-02-21T05:22:29;99587.69;;;5.78;85.52
70343;BME280;57767;42.068;24.752;2024-02-21T05:23:31;99585.09;;;5.86;85.68
70343;BME280;57767;42.068;24.752;2024-02-21T05:24:32;99582.31;;;5.87;84.87
70343;BME280;57767;42.068;24.752;2024-02-21T05:25:34;99586.22;;;5.83;85.46
70343;BME280;57767;42.068;24.752;2024-02-21T05:26:36;99590.72;;;5.91;85.81
70343;BME280;57767;42.068;24.752;2024-02-21T05:27:37;99583.00;;;5.89;85.85
70343;BME280;57767;42.068;24.752;2024-02-21T05:28:40;99582.84;;;5.91;86.08
70343;BME280;57767;42.068;24.752;2024-02-21T05:29:41;99580.75;;;5.94;85.32